Terminal Aerodrome Forecast
Issued by NWS El Paso, TX

Home | Current Version | Previous Version | Text Only | Print | Product List | Glossary On
Versions: 1 2 3 4 5 6 7 8 9 10 11
000
FTUS44 KEPZ 260500
TAFELP
TAF
KELP 260530Z 2606/2706 07008KT P6SM BKN250
     FM260700 04006KT P6SM FEW150 BKN220
     FM262200 35005KT P6SM SCT120 OVC220
     FM270200 03005KT P6SM SCT120 OVC200=

USA.gov is the U.S. government's official web portal to all federal, state and local government web resources and services.